Time;durP1;ratioP1;P1;durP2;ratioP2;P2;SDS_P1;SDS_P2;PMS_P1;PMS_P2;Temp;Humidity;BMP_temperature;BMP_pressure;BME280_temperature;BME280_humidity;BME280_pressure;Samples;Min_cycle;Max_cycle;Signal;HPM_P1;HPM_P2
2024/02/23 00:00:28;;;;;;;1.4;1.3;;;;;;;10.51;83.47949;93422.8;;;;
2024/02/23 00:01:28;;;;;;;1.4;1.3;;;;;;;10.51;83.47949;93422.8;;;;
2024/02/23 00:02:29;;;;;;;1.4;1.3;;;;;;;10.51;83.47949;93422.8;;;;
2024/02/23 00:03:29;;;;;;;1.4;1.3;;;;;;;10.51;83.47949;93422.8;;;;
2024/02/23 00:04:30;;;;;;;0.8;0.8;;;;;;;9.8;84.06152;93436.46;;;;
2024/02/23 00:05:31;;;;;;;0.8;0.8;;;;;;;9.8;84.06152;93436.46;;;;
2024/02/23 00:06:32;;;;;;;0.8;0.8;;;;;;;9.8;84.06152;93436.46;;;;
2024/02/23 00:07:32;;;;;;;0.8;0.8;;;;;;;9.8;84.06152;93436.46;;;;
2024/02/23 00:08:33;;;;;;;0.8;0.8;;;;;;;9.8;84.06152;93436.46;;;;
2024/02/23 00:09:33;;;;;;;0.8;0.8;;;;;;;9.8;84.06152;93436.46;;;;
2024/02/23 00:10:34;;;;;;;0.8;0.8;;;;;;;9.8;84.06152;93436.46;;;;
2024/02/23 00:11:39;;;;;;;0.8;0.8;;;;;;;9.8;84.06152;93436.46;;;;
2024/02/23 00:12:40;;;;;;;0.8;0.8;;;;;;;9.8;84.06152;93436.46;;;;
2024/02/23 00:13:40;;;;;;;0.8;0.8;;;;;;;9.8;84.06152;93436.46;;;;
2024/02/23 00:14:41;;;;;;;1.75;0.9;;;;;;;9.65;84.04297;93439.08;;;;
2024/02/23 00:15:42;;;;;;;1.75;0.9;;;;;;;9.65;84.04297;93439.08;;;;
2024/02/23 00:16:43;;;;;;;1.75;0.9;;;;;;;9.65;84.04297;93439.08;;;;
2024/02/23 00:17:43;;;;;;;1.75;0.9;;;;;;;9.65;84.04297;93439.08;;;;
2024/02/23 00:18:44;;;;;;;1.75;0.9;;;;;;;9.65;84.04297;93439.08;;;;
2024/02/23 00:19:44;;;;;;;1.75;0.9;;;;;;;9.65;84.04297;93439.08;;;;
2024/02/23 00:20:45;;;;;;;1.75;0.9;;;;;;;9.65;84.04297;93439.08;;;;
2024/02/23 00:21:49;;;;;;;1.75;0.9;;;;;;;9.65;84.04297;93439.08;;;;
2024/02/23 00:22:50;;;;;;;1.75;0.9;;;;;;;9.65;84.04297;93439.08;;;;
2024/02/23 00:23:50;;;;;;;1.75;0.9;;;;;;;9.65;84.04297;93439.08;;;;
2024/02/23 00:24:50;;;;;;;1.75;0.9;;;;;;;9.65;84.04297;93439.08;;;;
2024/02/23 00:25:51;;;;;;;1.45;0.8;;;;;;;9.39;84.89063;93451.25;;;;
2024/02/23 00:26:51;;;;;;;1.45;0.8;;;;;;;9.39;84.89063;93451.25;;;;
2024/02/23 00:27:52;;;;;;;1.45;0.8;;;;;;;9.39;84.89063;93451.25;;;;
2024/02/23 00:28:52;;;;;;;1.45;0.8;;;;;;;9.39;84.89063;93451.25;;;;
2024/02/23 00:29:53;;;;;;;1.45;0.8;;;;;;;9.39;84.89063;93451.25;;;;
2024/02/23 00:30:54;;;;;;;1.45;0.8;;;;;;;9.39;84.89063;93451.25;;;;
2024/02/23 00:31:54;;;;;;;1.45;0.8;;;;;;;9.39;84.89063;93451.25;;;;
2024/02/23 00:32:55;;;;;;;1.45;0.8;;;;;;;9.39;84.89063;93451.25;;;;
2024/02/23 00:33:56;;;;;;;1.45;0.8;;;;;;;9.39;84.89063;93451.25;;;;
2024/02/23 00:34:56;;;;;;;1.45;0.8;;;;;;;9.39;84.89063;93451.25;;;;
2024/02/23 00:35:57;;;;;;;0.7;0.7;;;;;;;9.24;85.32227;93449;;;;
2024/02/23 00:36:57;;;;;;;0.7;0.7;;;;;;;9.24;85.32227;93449;;;;
2024/02/23 00:37:58;;;;;;;0.7;0.7;;;;;;;9.24;85.32227;93449;;;;
2024/02/23 00:38:58;;;;;;;0.7;0.7;;;;;;;9.24;85.32227;93449;;;;
2024/02/23 00:39:59;;;;;;;0.7;0.7;;;;;;;9.24;85.32227;93449;;;;
2024/02/23 00:41:01;;;;;;;0.7;0.7;;;;;;;9.24;85.32227;93449;;;;
2024/02/23 00:42:01;;;;;;;0.7;0.7;;;;;;;9.24;85.32227;93449;;;;
2024/02/23 00:43:03;;;;;;;0.7;0.7;;;;;;;9.24;85.32227;93449;;;;
2024/02/23 00:44:03;;;;;;;0.7;0.7;;;;;;;9.24;85.32227;93449;;;;
2024/02/23 00:45:04;;;;;;;0.7;0.7;;;;;;;9.24;85.32227;93449;;;;
2024/02/23 00:46:06;;;;;;;0.7;0.7;;;;;;;9.24;85.32227;93449;;;;
2024/02/23 00:47:06;;;;;;;0.7;0.7;;;;;;;9.24;85.32227;93449;;;;
2024/02/23 00:48:07;;;;;;;0.7;0.7;;;;;;;9.24;85.32227;93449;;;;
2024/02/23 00:49:08;;;;;;;0.7;0.7;;;;;;;9.24;85.32227;93449;;;;
2024/02/23 00:50:08;;;;;;;0.7;0.7;;;;;;;9.24;85.32227;93449;;;;
2024/02/23 00:51:10;;;;;;;0.7;0.7;;;;;;;9.24;85.32227;93449;;;;
2024/02/23 00:52:10;;;;;;;0.7;0.7;;;;;;;9.24;85.32227;93449;;;;
2024/02/23 00:53:11;;;;;;;0.7;0.7;;;;;;;9.24;85.32227;93449;;;;
2024/02/23 00:54:11;;;;;;;0.7;0.7;;;;;;;9.24;85.32227;93449;;;;
2024/02/23 00:55:11;;;;;;;0.7;0.7;;;;;;;9.24;85.32227;93449;;;;
2024/02/23 00:56:12;;;;;;;0.7;0.7;;;;;;;9.24;85.32227;93449;;;;
2024/02/23 00:57:13;;;;;;;0.7;0.7;;;;;;;9.24;85.32227;93449;;;;
2024/02/23 00:58:13;;;;;;;0.7;0.7;;;;;;;9.03;85.58105;93485.27;;;;
2024/02/23 00:59:14;;;;;;;0.7;0.7;;;;;;;9.03;85.58105;93485.27;;;;
2024/02/23 01:00:14;;;;;;;0.7;0.7;;;;;;;9.03;85.58105;93485.27;;;;
2024/02/23 01:01:16;;;;;;;0.7;0.7;;;;;;;9.03;85.58105;93485.27;;;;
2024/02/23 01:02:17;;;;;;;0.7;0.7;;;;;;;9.03;85.58105;93485.27;;;;
2024/02/23 01:03:17;;;;;;;0.7;0.7;;;;;;;9.03;85.58105;93485.27;;;;
2024/02/23 01:04:17;;;;;;;0.7;0.7;;;;;;;9.03;85.58105;93485.27;;;;
2024/02/23 01:05:18;;;;;;;0.7;0.7;;;;;;;9.03;85.58105;93485.27;;;;
2024/02/23 01:06:19;;;;;;;0.7;0.7;;;;;;;9.03;85.58105;93485.27;;;;
2024/02/23 01:07:20;;;;;;;0.7;0.7;;;;;;;9.03;85.58105;93485.27;;;;
2024/02/23 01:08:20;;;;;;;0.7;0.7;;;;;;;9.03;85.58105;93485.27;;;;
2024/02/23 01:09:21;;;;;;;0.7;0.7;;;;;;;9.03;85.58105;93485.27;;;;
2024/02/23 01:10:21;;;;;;;0.7;0.7;;;;;;;9.03;85.58105;93485.27;;;;
2024/02/23 01:11:22;;;;;;;0.7;0.7;;;;;;;9.03;85.58105;93485.27;;;;
2024/02/23 01:12:22;;;;;;;0.7;0.7;;;;;;;9.03;85.58105;93485.27;;;;
2024/02/23 01:13:23;;;;;;;0.7;0.7;;;;;;;9.03;85.58105;93485.27;;;;
2024/02/23 01:14:24;;;;;;;0.7;0.7;;;;;;;9.03;85.58105;93485.27;;;;
2024/02/23 01:15:24;;;;;;;0.7;0.7;;;;;;;9.03;85.58105;93485.27;;;;
2024/02/23 01:16:25;;;;;;;0.7;0.7;;;;;;;9.03;85.58105;93485.27;;;;
2024/02/23 01:17:25;;;;;;;0.7;0.7;;;;;;;9.03;85.58105;93485.27;;;;
2024/02/23 01:18:26;;;;;;;0.7;0.7;;;;;;;9.03;85.58105;93485.27;;;;
2024/02/23 01:19:27;;;;;;;0.75;0.6;;;;;;;9.01;85.92969;93495.79;;;;
2024/02/23 01:20:27;;;;;;;0.75;0.6;;;;;;;9.01;85.92969;93495.79;;;;
2024/02/23 01:21:28;;;;;;;0.75;0.6;;;;;;;9.01;85.92969;93495.79;;;;
2024/02/23 01:22:28;;;;;;;0.75;0.6;;;;;;;9.01;85.92969;93495.79;;;;
2024/02/23 01:23:29;;;;;;;0.75;0.6;;;;;;;9.01;85.92969;93495.79;;;;
2024/02/23 01:24:29;;;;;;;0.75;0.6;;;;;;;9.01;85.92969;93495.79;;;;
2024/02/23 01:25:30;;;;;;;0.75;0.6;;;;;;;9.01;85.92969;93495.79;;;;
2024/02/23 01:26:30;;;;;;;0.75;0.6;;;;;;;9.01;85.92969;93495.79;;;;
2024/02/23 01:27:31;;;;;;;0.75;0.6;;;;;;;9.01;85.92969;93495.79;;;;
2024/02/23 01:28:31;;;;;;;0.75;0.6;;;;;;;9.01;85.92969;93495.79;;;;
2024/02/23 01:29:32;;;;;;;1.1;0.7;;;;;;;9.01;85.95117;93514.64;;;;
2024/02/23 01:30:33;;;;;;;1.1;0.7;;;;;;;9.01;85.95117;93514.64;;;;
2024/02/23 01:31:33;;;;;;;1.1;0.7;;;;;;;9.01;85.95117;93514.64;;;;
2024/02/23 01:32:34;;;;;;;1.1;0.7;;;;;;;9.01;85.95117;93514.64;;;;
2024/02/23 01:33:36;;;;;;;1.1;0.7;;;;;;;9.01;85.95117;93514.64;;;;
2024/02/23 01:34:36;;;;;;;1.1;0.7;;;;;;;9.01;85.95117;93514.64;;;;
2024/02/23 01:35:37;;;;;;;1.1;0.7;;;;;;;9.01;85.95117;93514.64;;;;
2024/02/23 01:36:38;;;;;;;1.1;0.7;;;;;;;9.01;85.95117;93514.64;;;;
2024/02/23 01:37:39;;;;;;;1.1;0.7;;;;;;;9.01;85.95117;93514.64;;;;
2024/02/23 01:38:42;;;;;;;1.1;0.7;;;;;;;9.01;85.95117;93514.64;;;;
2024/02/23 01:39:43;;;;;;;1.1;0.7;;;;;;;9.01;85.95117;93514.64;;;;
2024/02/23 01:40:43;;;;;;;0.65;0.65;;;;;;;8.98;85.7959;93523.41;;;;
2024/02/23 01:41:44;;;;;;;0.65;0.65;;;;;;;8.98;85.7959;93523.41;;;;
2024/02/23 01:42:45;;;;;;;0.65;0.65;;;;;;;8.98;85.7959;93523.41;;;;
2024/02/23 01:43:45;;;;;;;0.65;0.65;;;;;;;8.98;85.7959;93523.41;;;;
2024/02/23 01:44:46;;;;;;;0.65;0.65;;;;;;;8.98;85.7959;93523.41;;;;
2024/02/23 01:45:46;;;;;;;0.65;0.65;;;;;;;8.98;85.7959;93523.41;;;;
2024/02/23 01:46:47;;;;;;;0.65;0.65;;;;;;;8.98;85.7959;93523.41;;;;
2024/02/23 01:47:48;;;;;;;0.65;0.65;;;;;;;8.98;85.7959;93523.41;;;;
2024/02/23 01:48:48;;;;;;;0.65;0.65;;;;;;;8.98;85.7959;93523.41;;;;
2024/02/23 01:49:49;;;;;;;0.65;0.65;;;;;;;8.98;85.7959;93523.41;;;;
2024/02/23 01:50:51;;;;;;;0.5;0.5;;;;;;;8.92;85.50488;93508.18;;;;
2024/02/23 01:51:53;;;;;;;0.5;0.5;;;;;;;8.92;85.50488;93508.18;;;;
2024/02/23 01:52:54;;;;;;;0.5;0.5;;;;;;;8.92;85.50488;93508.18;;;;
2024/02/23 01:54:00;;;;;;;0.5;0.5;;;;;;;8.92;85.50488;93508.18;;;;
2024/02/23 01:55:01;;;;;;;0.5;0.5;;;;;;;8.92;85.50488;93508.18;;;;
2024/02/23 01:56:02;;;;;;;0.5;0.5;;;;;;;8.92;85.50488;93508.18;;;;
2024/02/23 01:57:04;;;;;;;0.5;0.5;;;;;;;8.92;85.50488;93508.18;;;;
2024/02/23 01:58:04;;;;;;;0.5;0.5;;;;;;;8.92;85.50488;93508.18;;;;
2024/02/23 01:59:05;;;;;;;0.5;0.5;;;;;;;8.92;85.50488;93508.18;;;;
2024/02/23 02:00:06;;;;;;;0.5;0.5;;;;;;;8.92;85.50488;93508.18;;;;
2024/02/23 02:01:10;;;;;;;0.5;0.5;;;;;;;8.92;85.50488;93508.18;;;;
2024/02/23 02:02:11;;;;;;;0.5;0.5;;;;;;;8.92;85.50488;93508.18;;;;
2024/02/23 02:03:11;;;;;;;0.5;0.5;;;;;;;8.92;85.50488;93508.18;;;;
2024/02/23 02:04:12;;;;;;;0.5;0.5;;;;;;;8.92;85.50488;93508.18;;;;
2024/02/23 02:05:12;;;;;;;0.5;0.5;;;;;;;8.92;85.50488;93508.18;;;;
2024/02/23 02:06:13;;;;;;;0.5;0.5;;;;;;;8.92;85.50488;93508.18;;;;
2024/02/23 02:07:14;;;;;;;0.5;0.5;;;;;;;8.92;85.50488;93508.18;;;;
2024/02/23 02:08:15;;;;;;;0.5;0.5;;;;;;;8.92;85.50488;93508.18;;;;
2024/02/23 02:09:16;;;;;;;0.5;0.5;;;;;;;8.92;85.50488;93508.18;;;;
2024/02/23 02:10:16;;;;;;;0.5;0.5;;;;;;;8.92;85.50488;93508.18;;;;
2024/02/23 02:11:17;;;;;;;0.5;0.5;;;;;;;8.92;85.50488;93508.18;;;;
2024/02/23 02:12:18;;;;;;;0.6;0.6;;;;;;;8.76;85.4541;93521.7;;;;
2024/02/23 02:13:26;;;;;;;0.6;0.6;;;;;;;8.76;85.4541;93521.7;;;;
2024/02/23 02:14:31;;;;;;;0.6;0.6;;;;;;;8.76;85.4541;93521.7;;;;
2024/02/23 02:15:31;;;;;;;0.6;0.6;;;;;;;8.76;85.4541;93521.7;;;;
2024/02/23 02:16:32;;;;;;;0.6;0.6;;;;;;;8.76;85.4541;93521.7;;;;
2024/02/23 02:17:32;;;;;;;0.6;0.6;;;;;;;8.76;85.4541;93521.7;;;;
2024/02/23 02:18:33;;;;;;;0.6;0.6;;;;;;;8.76;85.4541;93521.7;;;;
2024/02/23 02:19:33;;;;;;;0.6;0.6;;;;;;;8.76;85.4541;93521.7;;;;
2024/02/23 02:20:34;;;;;;;0.6;0.6;;;;;;;8.76;85.4541;93521.7;;;;
2024/02/23 02:21:36;;;;;;;0.6;0.6;;;;;;;8.76;85.4541;93521.7;;;;
2024/02/23 02:22:37;;;;;;;0.6;0.6;;;;;;;8.76;85.4541;93521.7;;;;
2024/02/23 02:23:38;;;;;;;0.65;0.65;;;;;;;8.75;85.62305;93535.89;;;;
2024/02/23 02:24:40;;;;;;;0.65;0.65;;;;;;;8.75;85.62305;93535.89;;;;
2024/02/23 02:25:41;;;;;;;0.65;0.65;;;;;;;8.75;85.62305;93535.89;;;;
2024/02/23 02:26:43;;;;;;;0.65;0.65;;;;;;;8.75;85.62305;93535.89;;;;
2024/02/23 02:27:45;;;;;;;0.65;0.65;;;;;;;8.75;85.62305;93535.89;;;;
2024/02/23 02:28:46;;;;;;;0.65;0.65;;;;;;;8.75;85.62305;93535.89;;;;
2024/02/23 02:29:47;;;;;;;0.65;0.65;;;;;;;8.75;85.62305;93535.89;;;;
2024/02/23 02:30:50;;;;;;;0.65;0.65;;;;;;;8.75;85.62305;93535.89;;;;
2024/02/23 02:31:51;;;;;;;0.65;0.65;;;;;;;8.75;85.62305;93535.89;;;;
2024/02/23 02:32:51;;;;;;;0.65;0.65;;;;;;;8.75;85.62305;93535.89;;;;
2024/02/23 02:33:52;;;;;;;0.6;0.6;;;;;;;8.76;85.625;93537.5;;;;
2024/02/23 02:34:52;;;;;;;0.6;0.6;;;;;;;8.76;85.625;93537.5;;;;
2024/02/23 02:35:53;;;;;;;0.6;0.6;;;;;;;8.76;85.625;93537.5;;;;
2024/02/23 02:36:53;;;;;;;0.6;0.6;;;;;;;8.76;85.625;93537.5;;;;
2024/02/23 02:37:54;;;;;;;0.6;0.6;;;;;;;8.76;85.625;93537.5;;;;
2024/02/23 02:38:54;;;;;;;0.6;0.6;;;;;;;8.76;85.625;93537.5;;;;
2024/02/23 02:39:55;;;;;;;0.6;0.6;;;;;;;8.76;85.625;93537.5;;;;
2024/02/23 02:40:57;;;;;;;0.6;0.6;;;;;;;8.76;85.625;93537.5;;;;
2024/02/23 02:41:57;;;;;;;0.6;0.6;;;;;;;8.76;85.625;93537.5;;;;
2024/02/23 02:42:57;;;;;;;0.6;0.6;;;;;;;8.76;85.625;93537.5;;;;
2024/02/23 02:43:58;;;;;;;0.6;0.6;;;;;;;8.76;85.625;93537.5;;;;
2024/02/23 02:44:58;;;;;;;0.5;0.5;;;;;;;8.76;85.7627;93544.6;;;;
2024/02/23 02:45:59;;;;;;;0.5;0.5;;;;;;;8.76;85.7627;93544.6;;;;
2024/02/23 02:46:59;;;;;;;0.5;0.5;;;;;;;8.76;85.7627;93544.6;;;;
2024/02/23 02:48:00;;;;;;;0.5;0.5;;;;;;;8.76;85.7627;93544.6;;;;
2024/02/23 02:49:01;;;;;;;0.5;0.5;;;;;;;8.76;85.7627;93544.6;;;;
2024/02/23 02:50:02;;;;;;;0.5;0.5;;;;;;;8.76;85.7627;93544.6;;;;
2024/02/23 02:51:02;;;;;;;0.5;0.5;;;;;;;8.76;85.7627;93544.6;;;;
2024/02/23 02:52:04;;;;;;;0.5;0.5;;;;;;;8.76;85.7627;93544.6;;;;
2024/02/23 02:53:04;;;;;;;0.5;0.5;;;;;;;8.76;85.7627;93544.6;;;;
2024/02/23 02:54:04;;;;;;;0.5;0.5;;;;;;;8.76;85.7627;93544.6;;;;
2024/02/23 02:55:05;;;;;;;0.7;0.7;;;;;;;8.74;85.7373;93551.93;;;;
2024/02/23 02:56:06;;;;;;;0.7;0.7;;;;;;;8.74;85.7373;93551.93;;;;
2024/02/23 02:57:07;;;;;;;0.7;0.7;;;;;;;8.74;85.7373;93551.93;;;;
2024/02/23 02:58:07;;;;;;;0.7;0.7;;;;;;;8.74;85.7373;93551.93;;;;
2024/02/23 02:59:08;;;;;;;0.7;0.7;;;;;;;8.74;85.7373;93551.93;;;;
2024/02/23 03:00:09;;;;;;;0.7;0.7;;;;;;;8.74;85.7373;93551.93;;;;
2024/02/23 03:01:11;;;;;;;0.7;0.7;;;;;;;8.74;85.7373;93551.93;;;;
2024/02/23 03:02:12;;;;;;;0.7;0.7;;;;;;;8.74;85.7373;93551.93;;;;
2024/02/23 03:03:12;;;;;;;0.7;0.7;;;;;;;8.74;85.7373;93551.93;;;;
2024/02/23 03:04:13;;;;;;;0.7;0.7;;;;;;;8.74;85.7373;93551.93;;;;
2024/02/23 03:05:14;;;;;;;0.7;0.7;;;;;;;8.74;85.7373;93551.93;;;;
2024/02/23 03:06:15;;;;;;;1.2;0.75;;;;;;;8.72;85.59473;93558;;;;
2024/02/23 03:07:15;;;;;;;1.2;0.75;;;;;;;8.72;85.59473;93558;;;;
2024/02/23 03:08:16;;;;;;;1.2;0.75;;;;;;;8.72;85.59473;93558;;;;
2024/02/23 03:09:17;;;;;;;1.2;0.75;;;;;;;8.72;85.59473;93558;;;;
2024/02/23 03:10:17;;;;;;;1.2;0.75;;;;;;;8.72;85.59473;93558;;;;
2024/02/23 03:11:18;;;;;;;1.2;0.75;;;;;;;8.72;85.59473;93558;;;;
2024/02/23 03:12:18;;;;;;;1.2;0.75;;;;;;;8.72;85.59473;93558;;;;
2024/02/23 03:13:19;;;;;;;1.2;0.75;;;;;;;8.72;85.59473;93558;;;;
2024/02/23 03:14:20;;;;;;;1.2;0.75;;;;;;;8.72;85.59473;93558;;;;
2024/02/23 03:15:21;;;;;;;1.2;0.75;;;;;;;8.72;85.59473;93558;;;;
2024/02/23 03:16:23;;;;;;;0.6;0.6;;;;;;;8.7;85.53711;93559.16;;;;
2024/02/23 03:17:23;;;;;;;0.6;0.6;;;;;;;8.7;85.53711;93559.16;;;;
2024/02/23 03:18:24;;;;;;;0.6;0.6;;;;;;;8.7;85.53711;93559.16;;;;
2024/02/23 03:19:25;;;;;;;0.6;0.6;;;;;;;8.7;85.53711;93559.16;;;;
2024/02/23 03:20:26;;;;;;;0.6;0.6;;;;;;;8.7;85.53711;93559.16;;;;
2024/02/23 03:21:26;;;;;;;0.6;0.6;;;;;;;8.7;85.53711;93559.16;;;;
2024/02/23 03:22:27;;;;;;;0.6;0.6;;;;;;;8.7;85.53711;93559.16;;;;
2024/02/23 03:23:27;;;;;;;0.6;0.6;;;;;;;8.7;85.53711;93559.16;;;;
2024/02/23 03:24:27;;;;;;;0.6;0.6;;;;;;;8.7;85.53711;93559.16;;;;
2024/02/23 03:25:28;;;;;;;0.6;0.6;;;;;;;8.7;85.53711;93559.16;;;;
2024/02/23 03:26:29;;;;;;;0.6;0.6;;;;;;;8.7;85.53711;93559.16;;;;
2024/02/23 03:27:29;;;;;;;0.7;0.7;;;;;;;8.65;85.44141;93564.34;;;;
2024/02/23 03:28:29;;;;;;;0.7;0.7;;;;;;;8.65;85.44141;93564.34;;;;
2024/02/23 03:29:30;;;;;;;0.7;0.7;;;;;;;8.65;85.44141;93564.34;;;;
2024/02/23 03:30:31;;;;;;;0.7;0.7;;;;;;;8.65;85.44141;93564.34;;;;
2024/02/23 03:31:31;;;;;;;0.7;0.7;;;;;;;8.65;85.44141;93564.34;;;;
2024/02/23 03:32:36;;;;;;;0.7;0.7;;;;;;;8.65;85.44141;93564.34;;;;
2024/02/23 03:33:36;;;;;;;0.7;0.7;;;;;;;8.65;85.44141;93564.34;;;;
2024/02/23 03:34:37;;;;;;;0.7;0.7;;;;;;;8.65;85.44141;93564.34;;;;
2024/02/23 03:35:37;;;;;;;0.7;0.7;;;;;;;8.65;85.44141;93564.34;;;;
2024/02/23 03:36:38;;;;;;;0.7;0.7;;;;;;;8.65;85.44141;93564.34;;;;
2024/02/23 03:37:38;;;;;;;0.7;0.7;;;;;;;8.57;85.61816;93558.58;;;;
2024/02/23 03:38:39;;;;;;;0.7;0.7;;;;;;;8.57;85.61816;93558.58;;;;
2024/02/23 03:39:39;;;;;;;0.7;0.7;;;;;;;8.57;85.61816;93558.58;;;;
2024/02/23 03:40:39;;;;;;;0.7;0.7;;;;;;;8.57;85.61816;93558.58;;;;
2024/02/23 03:41:41;;;;;;;0.7;0.7;;;;;;;8.57;85.61816;93558.58;;;;
2024/02/23 03:42:42;;;;;;;0.7;0.7;;;;;;;8.57;85.61816;93558.58;;;;
2024/02/23 03:43:42;;;;;;;0.7;0.7;;;;;;;8.57;85.61816;93558.58;;;;
2024/02/23 03:44:42;;;;;;;0.7;0.7;;;;;;;8.57;85.61816;93558.58;;;;
2024/02/23 03:45:43;;;;;;;0.7;0.7;;;;;;;8.57;85.61816;93558.58;;;;
2024/02/23 03:46:43;;;;;;;0.7;0.7;;;;;;;8.57;85.61816;93558.58;;;;
2024/02/23 03:47:44;;;;;;;0.7;0.7;;;;;;;8.57;85.61816;93558.58;;;;
2024/02/23 03:48:44;;;;;;;0.8;0.8;;;;;;;8.51;85.44531;93562.3;;;;
2024/02/23 03:49:45;;;;;;;0.8;0.8;;;;;;;8.51;85.44531;93562.3;;;;
2024/02/23 03:50:46;;;;;;;0.8;0.8;;;;;;;8.51;85.44531;93562.3;;;;
2024/02/23 03:51:46;;;;;;;0.8;0.8;;;;;;;8.51;85.44531;93562.3;;;;
2024/02/23 03:52:47;;;;;;;0.8;0.8;;;;;;;8.51;85.44531;93562.3;;;;
2024/02/23 03:53:48;;;;;;;0.8;0.8;;;;;;;8.51;85.44531;93562.3;;;;
2024/02/23 03:54:49;;;;;;;0.8;0.8;;;;;;;8.51;85.44531;93562.3;;;;
2024/02/23 03:55:49;;;;;;;0.8;0.8;;;;;;;8.51;85.44531;93562.3;;;;
2024/02/23 03:56:50;;;;;;;0.8;0.8;;;;;;;8.51;85.44531;93562.3;;;;
2024/02/23 03:57:50;;;;;;;0.8;0.8;;;;;;;8.51;85.44531;93562.3;;;;
2024/02/23 03:58:50;;;;;;;0.8;0.8;;;;;;;8.43;85.58008;93576.64;;;;
2024/02/23 03:59:51;;;;;;;0.8;0.8;;;;;;;8.43;85.58008;93576.64;;;;
2024/02/23 04:00:52;;;;;;;0.8;0.8;;;;;;;8.43;85.58008;93576.64;;;;
2024/02/23 04:01:53;;;;;;;0.8;0.8;;;;;;;8.43;85.58008;93576.64;;;;
2024/02/23 04:02:54;;;;;;;0.8;0.8;;;;;;;8.43;85.58008;93576.64;;;;
2024/02/23 04:03:55;;;;;;;0.8;0.8;;;;;;;8.43;85.58008;93576.64;;;;
2024/02/23 04:04:55;;;;;;;0.8;0.8;;;;;;;8.43;85.58008;93576.64;;;;
2024/02/23 04:05:56;;;;;;;0.8;0.8;;;;;;;8.43;85.58008;93576.64;;;;
2024/02/23 04:06:56;;;;;;;0.8;0.8;;;;;;;8.43;85.58008;93576.64;;;;
2024/02/23 04:07:56;;;;;;;0.8;0.8;;;;;;;8.43;85.58008;93576.64;;;;
2024/02/23 04:08:57;;;;;;;0.8;0.8;;;;;;;8.43;85.58008;93576.64;;;;
2024/02/23 04:09:58;;;;;;;1.2;0.8;;;;;;;8.35;85.41406;93581.94;;;;
2024/02/23 04:10:59;;;;;;;1.2;0.8;;;;;;;8.35;85.41406;93581.94;;;;
2024/02/23 04:11:59;;;;;;;1.2;0.8;;;;;;;8.35;85.41406;93581.94;;;;
2024/02/23 04:13:00;;;;;;;1.2;0.8;;;;;;;8.35;85.41406;93581.94;;;;
2024/02/23 04:14:01;;;;;;;1.2;0.8;;;;;;;8.35;85.41406;93581.94;;;;
2024/02/23 04:15:02;;;;;;;1.2;0.8;;;;;;;8.35;85.41406;93581.94;;;;
2024/02/23 04:16:02;;;;;;;1.2;0.8;;;;;;;8.35;85.41406;93581.94;;;;
2024/02/23 04:17:03;;;;;;;1.2;0.8;;;;;;;8.35;85.41406;93581.94;;;;
2024/02/23 04:18:04;;;;;;;1.2;0.8;;;;;;;8.35;85.41406;93581.94;;;;
2024/02/23 04:19:05;;;;;;;1.2;0.8;;;;;;;8.35;85.41406;93581.94;;;;
2024/02/23 04:20:05;;;;;;;1.2;0.8;;;;;;;8.35;85.41406;93581.94;;;;
2024/02/23 04:21:08;;;;;;;0.7;0.7;;;;;;;8.16;85.23926;93585.79;;;;
2024/02/23 04:22:09;;;;;;;0.7;0.7;;;;;;;8.16;85.23926;93585.79;;;;
2024/02/23 04:23:10;;;;;;;0.7;0.7;;;;;;;8.16;85.23926;93585.79;;;;
2024/02/23 04:24:10;;;;;;;0.7;0.7;;;;;;;8.16;85.23926;93585.79;;;;
2024/02/23 04:25:11;;;;;;;0.7;0.7;;;;;;;8.16;85.23926;93585.79;;;;
2024/02/23 04:26:11;;;;;;;0.7;0.7;;;;;;;8.16;85.23926;93585.79;;;;
2024/02/23 04:27:12;;;;;;;0.7;0.7;;;;;;;8.16;85.23926;93585.79;;;;
2024/02/23 04:28:13;;;;;;;0.7;0.7;;;;;;;8.16;85.23926;93585.79;;;;
2024/02/23 04:29:13;;;;;;;0.7;0.7;;;;;;;8.16;85.23926;93585.79;;;;
2024/02/23 04:30:13;;;;;;;0.7;0.7;;;;;;;8.16;85.23926;93585.79;;;;
2024/02/23 04:31:14;;;;;;;1.3;0.9;;;;;;;8.02;85.37109;93586.24;;;;
2024/02/23 04:32:15;;;;;;;1.3;0.9;;;;;;;8.02;85.37109;93586.24;;;;
2024/02/23 04:33:16;;;;;;;1.3;0.9;;;;;;;8.02;85.37109;93586.24;;;;
2024/02/23 04:34:16;;;;;;;1.3;0.9;;;;;;;8.02;85.37109;93586.24;;;;
2024/02/23 04:35:17;;;;;;;1.3;0.9;;;;;;;8.02;85.37109;93586.24;;;;
2024/02/23 04:36:17;;;;;;;1.3;0.9;;;;;;;8.02;85.37109;93586.24;;;;
2024/02/23 04:37:19;;;;;;;1.3;0.9;;;;;;;8.02;85.37109;93586.24;;;;
2024/02/23 04:38:19;;;;;;;1.3;0.9;;;;;;;8.02;85.37109;93586.24;;;;
2024/02/23 04:39:20;;;;;;;1.3;0.9;;;;;;;8.02;85.37109;93586.24;;;;
2024/02/23 04:40:21;;;;;;;1.3;0.9;;;;;;;8.02;85.37109;93586.24;;;;
2024/02/23 04:41:21;;;;;;;1.3;0.9;;;;;;;8.02;85.37109;93586.24;;;;
2024/02/23 04:42:22;;;;;;;0.85;0.85;;;;;;;7.92;85.18262;93589.09;;;;
2024/02/23 04:43:23;;;;;;;0.85;0.85;;;;;;;7.92;85.18262;93589.09;;;;
2024/02/23 04:44:24;;;;;;;0.85;0.85;;;;;;;7.92;85.18262;93589.09;;;;
2024/02/23 04:45:24;;;;;;;0.85;0.85;;;;;;;7.92;85.18262;93589.09;;;;
2024/02/23 04:46:24;;;;;;;0.85;0.85;;;;;;;7.92;85.18262;93589.09;;;;
2024/02/23 04:47:25;;;;;;;0.85;0.85;;;;;;;7.92;85.18262;93589.09;;;;
2024/02/23 04:48:25;;;;;;;0.85;0.85;;;;;;;7.92;85.18262;93589.09;;;;
2024/02/23 04:49:26;;;;;;;0.85;0.85;;;;;;;7.92;85.18262;93589.09;;;;
2024/02/23 04:50:26;;;;;;;0.85;0.85;;;;;;;7.92;85.18262;93589.09;;;;
2024/02/23 04:51:27;;;;;;;0.85;0.85;;;;;;;7.92;85.18262;93589.09;;;;
2024/02/23 04:52:28;;;;;;;0.85;0.8;;;;;;;7.82;85.41797;93591.13;;;;
2024/02/23 04:53:28;;;;;;;0.85;0.8;;;;;;;7.82;85.41797;93591.13;;;;
2024/02/23 04:54:29;;;;;;;0.85;0.8;;;;;;;7.82;85.41797;93591.13;;;;
2024/02/23 04:55:29;;;;;;;0.85;0.8;;;;;;;7.82;85.41797;93591.13;;;;
2024/02/23 04:56:30;;;;;;;0.85;0.8;;;;;;;7.82;85.41797;93591.13;;;;
2024/02/23 04:57:30;;;;;;;0.85;0.8;;;;;;;7.82;85.41797;93591.13;;;;
2024/02/23 04:58:31;;;;;;;0.85;0.8;;;;;;;7.82;85.41797;93591.13;;;;
2024/02/23 04:59:32;;;;;;;0.85;0.8;;;;;;;7.82;85.41797;93591.13;;;;
2024/02/23 05:00:33;;;;;;;0.85;0.8;;;;;;;7.82;85.41797;93591.13;;;;
2024/02/23 05:01:33;;;;;;;0.85;0.8;;;;;;;7.82;85.41797;93591.13;;;;
2024/02/23 05:02:35;;;;;;;0.85;0.8;;;;;;;7.82;85.41797;93591.13;;;;
2024/02/23 05:03:36;;;;;;;0.9;0.9;;;;;;;7.79;85.41211;93588.47;;;;
2024/02/23 05:04:36;;;;;;;0.9;0.9;;;;;;;7.79;85.41211;93588.47;;;;
2024/02/23 05:05:37;;;;;;;0.9;0.9;;;;;;;7.79;85.41211;93588.47;;;;
2024/02/23 05:06:37;;;;;;;0.9;0.9;;;;;;;7.79;85.41211;93588.47;;;;
2024/02/23 05:07:38;;;;;;;0.9;0.9;;;;;;;7.79;85.41211;93588.47;;;;
2024/02/23 05:08:38;;;;;;;0.9;0.9;;;;;;;7.79;85.41211;93588.47;;;;
2024/02/23 05:09:40;;;;;;;0.9;0.9;;;;;;;7.79;85.41211;93588.47;;;;
2024/02/23 05:10:41;;;;;;;0.9;0.9;;;;;;;7.79;85.41211;93588.47;;;;
2024/02/23 05:11:41;;;;;;;0.9;0.9;;;;;;;7.79;85.41211;93588.47;;;;
2024/02/23 05:12:42;;;;;;;0.9;0.9;;;;;;;7.79;85.41211;93588.47;;;;
2024/02/23 05:13:42;;;;;;;1.1;1;;;;;;;7.92;84.4043;93578.97;;;;
2024/02/23 05:14:43;;;;;;;1.1;1;;;;;;;7.92;84.4043;93578.97;;;;
2024/02/23 05:15:43;;;;;;;1.1;1;;;;;;;7.92;84.4043;93578.97;;;;
2024/02/23 05:16:44;;;;;;;1.1;1;;;;;;;7.92;84.4043;93578.97;;;;
2024/02/23 05:17:44;;;;;;;1.1;1;;;;;;;7.92;84.4043;93578.97;;;;
2024/02/23 05:18:46;;;;;;;1.1;1;;;;;;;7.92;84.4043;93578.97;;;;
2024/02/23 05:19:46;;;;;;;1.1;1;;;;;;;7.92;84.4043;93578.97;;;;
2024/02/23 05:20:47;;;;;;;1.1;1;;;;;;;7.92;84.4043;93578.97;;;;
2024/02/23 05:21:47;;;;;;;1.1;1;;;;;;;7.92;84.4043;93578.97;;;;
2024/02/23 05:22:48;;;;;;;1.1;1;;;;;;;7.92;84.4043;93578.97;;;;
2024/02/23 05:23:48;;;;;;;1.1;1;;;;;;;7.92;84.4043;93578.97;;;;
2024/02/23 05:24:49;;;;;;;0.9;0.9;;;;;;;7.86;84.42383;93584.38;;;;
2024/02/23 05:25:49;;;;;;;0.9;0.9;;;;;;;7.86;84.42383;93584.38;;;;
2024/02/23 05:26:49;;;;;;;0.9;0.9;;;;;;;7.86;84.42383;93584.38;;;;
2024/02/23 05:27:50;;;;;;;0.9;0.9;;;;;;;7.86;84.42383;93584.38;;;;
2024/02/23 05:28:50;;;;;;;0.9;0.9;;;;;;;7.86;84.42383;93584.38;;;;
2024/02/23 05:29:51;;;;;;;0.9;0.9;;;;;;;7.86;84.42383;93584.38;;;;
2024/02/23 05:30:51;;;;;;;0.9;0.9;;;;;;;7.86;84.42383;93584.38;;;;
2024/02/23 05:31:52;;;;;;;0.9;0.9;;;;;;;7.86;84.42383;93584.38;;;;
2024/02/23 05:32:53;;;;;;;0.9;0.9;;;;;;;7.86;84.42383;93584.38;;;;
2024/02/23 05:33:53;;;;;;;0.9;0.9;;;;;;;7.86;84.42383;93584.38;;;;
2024/02/23 05:34:54;;;;;;;0.9;0.9;;;;;;;7.86;84.42383;93584.38;;;;
2024/02/23 05:35:54;;;;;;;0.95;0.9;;;;;;;7.79;84.53809;93576.23;;;;
2024/02/23 05:36:55;;;;;;;0.95;0.9;;;;;;;7.79;84.53809;93576.23;;;;
2024/02/23 05:37:56;;;;;;;0.95;0.9;;;;;;;7.79;84.53809;93576.23;;;;
2024/02/23 05:38:56;;;;;;;0.95;0.9;;;;;;;7.79;84.53809;93576.23;;;;
2024/02/23 05:39:59;;;;;;;0.95;0.9;;;;;;;7.79;84.53809;93576.23;;;;
2024/02/23 05:41:00;;;;;;;0.95;0.9;;;;;;;7.79;84.53809;93576.23;;;;
2024/02/23 05:42:01;;;;;;;0.95;0.9;;;;;;;7.79;84.53809;93576.23;;;;
2024/02/23 05:43:01;;;;;;;0.95;0.9;;;;;;;7.79;84.53809;93576.23;;;;
2024/02/23 05:44:05;;;;;;;0.95;0.9;;;;;;;7.79;84.53809;93576.23;;;;
2024/02/23 05:45:08;;;;;;;0;0;;;;;;;0;0;0;;;;
2024/02/23 05:46:09;;;;;;;0;0;;;;;;;0;0;0;;;;
2024/02/23 05:47:10;;;;;;;0;0;;;;;;;0;0;0;;;;
2024/02/23 05:48:11;;;;;;;0;0;;;;;;;0;0;0;;;;
2024/02/23 05:49:12;;;;;;;0;0;;;;;;;0;0;0;;;;
2024/02/23 05:50:12;;;;;;;0;0;;;;;;;0;0;0;;;;
2024/02/23 05:51:13;;;;;;;0;0;;;;;;;0;0;0;;;;
2024/02/23 05:52:14;;;;;;;0;0;;;;;;;0;0;0;;;;
2024/02/23 05:53:15;;;;;;;0;0;;;;;;;0;0;0;;;;
2024/02/23 05:54:15;;;;;;;0;0;;;;;;;0;0;0;;;;
2024/02/23 05:55:15;;;;;;;0;0;;;;;;;0;0;0;;;;
2024/02/23 05:56:16;;;;;;;0;0;;;;;;;0;0;0;;;;
2024/02/23 05:57:17;;;;;;;0;0;;;;;;;0;0;0;;;;
2024/02/23 05:58:17;;;;;;;0;0;;;;;;;0;0;0;;;;
2024/02/23 05:59:17;;;;;;;0;0;;;;;;;0;0;0;;;;
2024/02/23 06:00:18;;;;;;;0;0;;;;;;;0;0;0;;;;
2024/02/23 06:01:19;;;;;;;0;0;;;;;;;0;0;0;;;;
2024/02/23 06:02:20;;;;;;;0;0;;;;;;;0;0;0;;;;
2024/02/23 06:03:21;;;;;;;0;0;;;;;;;0;0;0;;;;
2024/02/23 06:04:21;;;;;;;0;0;;;;;;;0;0;0;;;;
2024/02/23 06:05:22;;;;;;;0;0;;;;;;;0;0;0;;;;
2024/02/23 06:06:22;;;;;;;0;0;;;;;;;0;0;0;;;;
2024/02/23 06:07:28;;;;;;;0;0;;;;;;;0;0;0;;;;
2024/02/23 06:08:29;;;;;;;0;0;;;;;;;0;0;0;;;;